createdAt,value
2016-04-15T00:00:01.957Z,12.2
2016-04-15T00:00:11.957Z,12.2
2016-04-15T00:00:21.941Z,12.3
2016-04-15T00:00:31.926Z,12.3
2016-04-15T00:00:41.926Z,12.2
2016-04-15T00:00:51.894Z,12.1
2016-04-15T00:01:01.897Z,12.2
2016-04-15T00:01:11.882Z,12.2
2016-04-15T00:01:21.866Z,12.2
2016-04-15T00:01:31.866Z,12.3
2016-04-15T00:01:41.851Z,12.2
2016-04-15T00:01:51.835Z,12.2
2016-04-15T00:02:01.821Z,12.2
2016-04-15T00:02:11.806Z,12.2
2016-04-15T00:02:21.821Z,12.2
2016-04-15T00:02:31.790Z,12.1
2016-04-15T00:02:41.774Z,12.1
2016-04-15T00:02:51.759Z,12.1
2016-04-15T00:03:01.746Z,12.2
2016-04-15T00:03:11.746Z,12.1
2016-04-15T00:03:21.731Z,12.1
2016-04-15T00:03:31.715Z,12.1
2016-04-15T00:03:41.699Z,12.1
2016-04-15T00:03:51.699Z,12.1
2016-04-15T00:04:01.687Z,12.1
2016-04-15T00:04:11.671Z,12.2
2016-04-15T00:04:21.655Z,12.1
2016-04-15T00:04:31.640Z,12.1
2016-04-15T00:04:41.624Z,12.1
2016-04-15T00:04:51.624Z,12.1
2016-04-15T00:05:01.611Z,12.1
2016-04-15T00:05:11.595Z,12.1
2016-04-15T00:05:21.579Z,12.1
2016-04-15T00:05:31.579Z,12.1
2016-04-15T00:05:41.564Z,12.1
2016-04-15T00:05:51.564Z,12.1
2016-04-15T00:06:01.535Z,12.1
2016-04-15T00:06:11.535Z,12.1
2016-04-15T00:06:21.520Z,12.1
2016-04-15T00:06:31.504Z,12.1
2016-04-15T00:06:41.489Z,12.1
2016-04-15T00:06:51.489Z,12.1
2016-04-15T00:07:01.476Z,12.1
2016-04-15T00:07:11.460Z,12.1
2016-04-15T00:07:21.445Z,12.1
2016-04-15T00:07:31.429Z,12.1
2016-04-15T00:07:41.429Z,12.1
2016-04-15T00:07:51.413Z,12.2
2016-04-15T00:08:01.400Z,12.1
2016-04-15T00:08:11.384Z,12.1
2016-04-15T00:08:21.369Z,12.1
2016-04-15T00:08:31.369Z,12
2016-04-15T00:08:41.353Z,12.1
2016-04-15T00:08:51.337Z,12.1
2016-04-15T00:09:01.340Z,12.1
2016-04-15T00:09:11.325Z,12.1
2016-04-15T00:09:21.309Z,11.9
2016-04-15T00:09:31.293Z,12
2016-04-15T00:09:41.278Z,12
2016-04-15T00:09:51.278Z,12.1
2016-04-15T00:10:01.262Z,12
2016-04-15T00:10:11.250Z,12
2016-04-15T00:10:21.234Z,12
2016-04-15T00:10:31.234Z,11.9
2016-04-15T00:10:41.218Z,11.9
2016-04-15T00:10:51.203Z,11.9
2016-04-15T00:11:01.187Z,12.1
2016-04-15T00:11:11.174Z,12
2016-04-15T00:11:21.174Z,12
2016-04-15T00:11:31.159Z,11.9
2016-04-15T00:11:41.143Z,11.9
2016-04-15T00:11:51.128Z,11.9
2016-04-15T00:12:01.128Z,12
2016-04-15T00:12:11.115Z,11.9
2016-04-15T00:12:21.099Z,12
2016-04-15T00:12:31.099Z,11.9
2016-04-15T00:12:41.084Z,11.9
2016-04-15T00:12:51.068Z,11.9
2016-04-15T00:13:01.052Z,12
2016-04-15T00:13:11.039Z,12
2016-04-15T00:13:21.023Z,11.9
2016-04-15T00:13:31.008Z,12
2016-04-15T00:13:41.008Z,11.9
2016-04-15T00:13:50.992Z,11.9
2016-04-15T00:14:00.976Z,11.9
2016-04-15T00:14:10.964Z,11.9
2016-04-15T00:14:20.964Z,11.9
2016-04-15T00:14:31.042Z,11.9
2016-04-15T00:14:40.932Z,11.9
2016-04-15T00:14:50.917Z,11.9
2016-04-15T00:15:00.917Z,11.9
2016-04-15T00:15:10.903Z,11.9
2016-04-15T00:15:20.888Z,11.9
2016-04-15T00:15:30.872Z,11.8
2016-04-15T00:15:40.856Z,11.9
2016-04-15T00:15:50.091Z,11.8
2016-04-15T00:16:00.841Z,12
2016-04-15T00:16:10.828Z,11.9
2016-04-15T00:16:20.812Z,11.9
2016-04-15T00:16:30.797Z,11.9
2016-04-15T00:16:40.797Z,11.9
2016-04-15T00:16:50.781Z,11.9
2016-04-15T00:17:00.766Z,11.9
2016-04-15T00:17:10.753Z,11.9
2016-04-15T00:17:20.737Z,11.9
2016-04-15T00:17:30.737Z,11.9
2016-04-15T00:17:40.722Z,11.9
2016-04-15T00:17:50.722Z,11.9
2016-04-15T00:18:00.690Z,11.9
2016-04-15T00:18:10.677Z,11.9
2016-04-15T00:18:20.677Z,11.9
2016-04-15T00:18:30.661Z,11.9
2016-04-15T00:18:40.646Z,11.8
2016-04-15T00:18:50.646Z,11.8
2016-04-15T00:19:00.630Z,11.8
2016-04-15T00:19:10.617Z,11.8
2016-04-15T00:19:20.445Z,11.8
2016-04-15T00:19:30.602Z,11.8
2016-04-15T00:19:40.586Z,11.8
2016-04-15T00:19:50.570Z,11.7
2016-04-15T00:20:03.213Z,11.8
2016-04-15T00:20:10.541Z,11.8
2016-04-15T00:20:20.541Z,11.8
2016-04-15T00:20:30.526Z,11.7
2016-04-15T00:20:40.510Z,11.7
2016-04-15T00:20:50.494Z,11.8
2016-04-15T00:21:00.479Z,11.8
2016-04-15T00:21:10.482Z,11.7
2016-04-15T00:21:20.466Z,11.8
2016-04-15T00:21:30.450Z,11.8
2016-04-15T00:21:40.435Z,11.8
2016-04-15T00:21:50.435Z,11.8
2016-04-15T00:22:00.419Z,11.8
2016-04-15T00:22:10.407Z,11.8
2016-04-15T00:22:20.391Z,11.9
2016-04-15T00:22:30.375Z,11.8
2016-04-15T00:22:40.360Z,11.9
2016-04-15T00:22:49.594Z,11.8
2016-04-15T00:23:00.344Z,11.8
2016-04-15T00:23:10.330Z,11.7
2016-04-15T00:23:20.330Z,11.7
2016-04-15T00:23:30.315Z,11.8
2016-04-15T00:23:40.299Z,11.8
2016-04-15T00:23:50.284Z,11.8
2016-04-15T00:24:00.284Z,11.7
2016-04-15T00:24:10.271Z,11.7
2016-04-15T00:24:20.255Z,11.8
2016-04-15T00:24:30.240Z,11.8
2016-04-15T00:24:40.224Z,11.7
2016-04-15T00:24:50.208Z,11.7
2016-04-15T00:25:00.208Z,11.7
2016-04-15T00:25:10.196Z,11.7
2016-04-15T00:25:20.180Z,11.7
2016-04-15T00:25:30.180Z,11.7
2016-04-15T00:25:40.165Z,11.8
2016-04-15T00:25:50.149Z,11.9
2016-04-15T00:26:00.133Z,11.9
2016-04-15T00:26:10.121Z,11.8
2016-04-15T00:26:20.121Z,11.8
2016-04-15T00:26:30.105Z,11.9
2016-04-15T00:26:40.089Z,11.9
2016-04-15T00:26:50.074Z,11.9
2016-04-15T00:27:00.074Z,11.8
2016-04-15T00:27:10.061Z,11.8
2016-04-15T00:27:20.046Z,11.9
2016-04-15T00:27:30.030Z,11.9
2016-04-15T00:27:40.014Z,11.8
2016-04-15T00:27:49.999Z,11.9
2016-04-15T00:27:59.999Z,11.8
2016-04-15T00:28:09.985Z,11.9
2016-04-15T00:28:19.969Z,11.9
2016-04-15T00:28:29.954Z,11.9
2016-04-15T00:28:39.954Z,11.9
2016-04-15T00:28:49.938Z,11.9
2016-04-15T00:28:59.923Z,11.9
2016-04-15T00:29:09.926Z,11.9
2016-04-15T00:29:19.894Z,11.9
2016-04-15T00:29:30.035Z,11.9
2016-04-15T00:29:39.738Z,11.7
2016-04-15T00:29:49.863Z,11.9
2016-04-15T00:29:59.863Z,11.9
2016-04-15T00:30:09.693Z,11.9
2016-04-15T00:30:19.834Z,11.9
2016-04-15T00:30:29.818Z,11.8
2016-04-15T00:30:39.818Z,11.7
2016-04-15T00:30:49.803Z,11.8
2016-04-15T00:30:59.787Z,11.8
2016-04-15T00:31:09.774Z,11.8
2016-04-15T00:31:19.759Z,11.8
2016-04-15T00:31:29.743Z,11.7
2016-04-15T00:31:39.727Z,11.8
2016-04-15T00:31:49.571Z,11.8
2016-04-15T00:31:59.712Z,11.8
2016-04-15T00:32:09.699Z,11.7
2016-04-15T00:32:19.731Z,11.7
2016-04-15T00:32:29.528Z,11.8
2016-04-15T00:32:39.669Z,11.7
2016-04-15T00:32:49.513Z,11.7
2016-04-15T00:32:59.497Z,11.7
2016-04-15T00:33:09.641Z,11.8
2016-04-15T00:33:19.625Z,11.7
2016-04-15T00:33:29.609Z,11.7
2016-04-15T00:33:39.594Z,11.8
2016-04-15T00:33:49.578Z,11.7
2016-04-15T00:33:59.578Z,11.7
2016-04-15T00:34:09.565Z,11.7
2016-04-15T00:34:19.549Z,11.7
2016-04-15T00:34:29.533Z,11.7
2016-04-15T00:34:39.533Z,11.7
2016-04-15T00:34:49.518Z,11.8
2016-04-15T00:34:59.502Z,11.6
2016-04-15T00:35:09.490Z,11.7
2016-04-15T00:35:19.497Z,11.7
2016-04-15T00:35:29.466Z,11.7
2016-04-15T00:35:39.450Z,11.7
2016-04-15T00:35:49.450Z,11.8
2016-04-15T00:35:59.435Z,11.7
2016-04-15T00:36:09.421Z,11.6
2016-04-15T00:36:19.405Z,11.7
2016-04-15T00:36:29.405Z,11.7
2016-04-15T00:36:39.390Z,11.7
2016-04-15T00:36:49.374Z,11.6
2016-04-15T00:36:59.359Z,11.6
2016-04-15T00:37:09.346Z,11.7
2016-04-15T00:37:19.346Z,11.7
2016-04-15T00:37:29.330Z,11.6
2016-04-15T00:37:39.315Z,11.6
2016-04-15T00:37:49.299Z,11.6
2016-04-15T00:37:59.283Z,11.6
2016-04-15T00:38:09.285Z,11.6
2016-04-15T00:38:19.270Z,11.6
2016-04-15T00:38:29.270Z,11.6
2016-04-15T00:38:39.239Z,11.6
2016-04-15T00:38:49.239Z,11.6
2016-04-15T00:38:59.223Z,11.6
2016-04-15T00:39:09.210Z,11.6
2016-04-15T00:39:19.195Z,11.6
2016-04-15T00:39:29.195Z,11.7
2016-04-15T00:39:39.179Z,11.6
2016-04-15T00:39:49.163Z,11.7
2016-04-15T00:39:59.148Z,11.7
2016-04-15T00:40:09.135Z,11.7
2016-04-15T00:40:19.120Z,11.7
2016-04-15T00:40:29.120Z,11.7
2016-04-15T00:40:39.104Z,11.7
2016-04-15T00:40:48.948Z,11.7
2016-04-15T00:40:59.088Z,11.6
2016-04-15T00:41:09.075Z,11.6
2016-04-15T00:41:19.059Z,11.6
2016-04-15T00:41:29.043Z,11.7
2016-04-15T00:41:39.028Z,11.6
2016-04-15T00:41:49.012Z,11.7
2016-04-15T00:41:59.012Z,11.7
2016-04-15T00:42:09.000Z,11.7
2016-04-15T00:42:18.984Z,11.8
2016-04-15T00:42:28.984Z,11.8
2016-04-15T00:42:38.968Z,11.7
2016-04-15T00:42:48.953Z,11.7
2016-04-15T00:42:58.953Z,11.7
2016-04-15T00:43:08.939Z,11.8
2016-04-15T00:43:18.923Z,11.7
2016-04-15T00:43:28.908Z,11.8
2016-04-15T00:43:38.892Z,11.7
2016-04-15T00:43:48.877Z,11.8
2016-04-15T00:43:58.877Z,11.8
2016-04-15T00:44:08.864Z,11.8
2016-04-15T00:44:18.848Z,11.9
2016-04-15T00:44:28.755Z,11.8
2016-04-15T00:44:38.833Z,11.8
2016-04-15T00:44:48.817Z,11.8
2016-04-15T00:44:58.801Z,11.8
2016-04-15T00:45:08.789Z,11.8
2016-04-15T00:45:18.789Z,11.7
2016-04-15T00:45:28.758Z,11.7
2016-04-15T00:45:38.758Z,11.8
2016-04-15T00:45:48.742Z,11.7
2016-04-15T00:45:58.726Z,11.7
2016-04-15T00:46:08.729Z,11.7
2016-04-15T00:46:18.714Z,11.8
2016-04-15T00:46:28.698Z,11.7
2016-04-15T00:46:38.682Z,11.8
2016-04-15T00:46:48.667Z,11.7
2016-04-15T00:46:58.667Z,11.7
2016-04-15T00:47:08.654Z,11.7
2016-04-15T00:47:18.639Z,11.7
2016-04-15T00:47:28.623Z,11.7
2016-04-15T00:47:38.623Z,11.8
2016-04-15T00:47:48.607Z,11.6
2016-04-15T00:47:58.592Z,11.8
2016-04-15T00:48:08.579Z,11.8
2016-04-15T00:48:18.563Z,11.7
2016-04-15T00:48:28.563Z,11.8
2016-04-15T00:48:38.548Z,11.8
2016-04-15T00:48:48.532Z,11.7
2016-04-15T00:48:58.517Z,11.7
2016-04-15T00:49:08.503Z,11.7
2016-04-15T00:49:18.487Z,11.8
2016-04-15T00:49:28.487Z,11.7
2016-04-15T00:49:38.472Z,11.8
2016-04-15T00:49:48.456Z,11.8
2016-04-15T00:49:58.456Z,11.7
2016-04-15T00:50:08.443Z,11.7
2016-04-15T00:50:18.428Z,11.7
2016-04-15T00:50:28.412Z,11.8
2016-04-15T00:50:38.397Z,11.8
2016-04-15T00:50:48.381Z,11.7
2016-04-15T00:50:58.381Z,11.8
2016-04-15T00:51:08.368Z,11.7
2016-04-15T00:51:18.353Z,11.7
2016-04-15T00:51:28.337Z,11.8
2016-04-15T00:51:38.337Z,11.8
2016-04-15T00:51:48.321Z,11.8
2016-04-15T00:51:58.306Z,11.8
2016-04-15T00:52:08.308Z,11.8
2016-04-15T00:52:18.292Z,11.7
2016-04-15T00:52:28.277Z,11.7
2016-04-15T00:52:38.261Z,11.7
2016-04-15T00:52:48.245Z,11.8
2016-04-15T00:52:58.230Z,11.7
2016-04-15T00:53:08.233Z,11.7
2016-04-15T00:53:18.217Z,11.6
2016-04-15T00:53:28.201Z,11.8
2016-04-15T00:53:38.186Z,11.8
2016-04-15T00:53:48.186Z,11.7
2016-04-15T00:53:58.170Z,11.7
2016-04-15T00:54:08.157Z,11.7
2016-04-15T00:54:18.141Z,11.7
2016-04-15T00:54:28.141Z,11.7
2016-04-15T00:54:38.125Z,11.7
2016-04-15T00:54:48.110Z,11.6
2016-04-15T00:54:57.344Z,11.6
2016-04-15T00:55:08.081Z,11.7
2016-04-15T00:55:18.081Z,11.6
2016-04-15T00:55:28.097Z,11.6
2016-04-15T00:55:38.050Z,11.6
2016-04-15T00:55:48.035Z,11.7
2016-04-15T00:55:58.019Z,11.7
2016-04-15T00:56:08.021Z,11.7
2016-04-15T00:56:18.005Z,11.7
2016-04-15T00:56:27.990Z,11.6
2016-04-15T00:56:37.990Z,11.6
2016-04-15T00:56:47.958Z,11.6
2016-04-15T00:56:57.958Z,11.7
2016-04-15T00:57:07.946Z,11.6
2016-04-15T00:57:17.930Z,11.6
2016-04-15T00:57:27.758Z,11.7
2016-04-15T00:57:37.915Z,11.6
2016-04-15T00:57:47.899Z,11.7
2016-04-15T00:57:57.899Z,11.7
2016-04-15T00:58:07.871Z,11.6
2016-04-15T00:58:17.871Z,11.7
2016-04-15T00:58:27.855Z,11.7
2016-04-15T00:58:37.839Z,11.7
2016-04-15T00:58:47.824Z,11.7
2016-04-15T00:58:57.808Z,11.7
2016-04-15T00:59:07.810Z,11.7
2016-04-15T00:59:17.795Z,11.7
2016-04-15T00:59:27.795Z,11.7
2016-04-15T00:59:37.795Z,11.8
2016-04-15T00:59:47.763Z,11.6
2016-04-15T00:59:57.748Z,11.7
2016-04-15T01:00:07.735Z,11.6
2016-04-15T01:00:17.719Z,11.7
2016-04-15T01:00:27.704Z,11.6
2016-04-15T01:00:37.704Z,11.7
2016-04-15T01:00:47.688Z,11.7
2016-04-15T01:00:57.673Z,11.7
2016-04-15T01:01:07.676Z,11.8
2016-04-15T01:01:17.644Z,11.7
2016-04-15T01:01:27.644Z,11.7
2016-04-15T01:01:37.629Z,11.8
2016-04-15T01:01:47.629Z,11.8
2016-04-15T01:01:57.597Z,11.7
2016-04-15T01:02:07.616Z,11.8
2016-04-15T01:02:17.585Z,11.7
2016-04-15T01:02:26.819Z,11.7
2016-04-15T01:02:37.569Z,11.7
2016-04-15T01:02:47.538Z,11.7
2016-04-15T01:02:57.538Z,11.7
2016-04-15T01:03:07.525Z,11.8
2016-04-15T01:03:17.510Z,11.7
2016-04-15T01:03:27.494Z,11.8
2016-04-15T01:03:37.494Z,11.8
2016-04-15T01:03:47.478Z,11.7
2016-04-15T01:03:57.463Z,11.8
2016-04-15T01:04:07.449Z,11.8
2016-04-15T01:04:17.449Z,11.8
2016-04-15T01:04:27.434Z,11.8
2016-04-15T01:04:37.418Z,11.9
2016-04-15T01:04:47.402Z,11.7
2016-04-15T01:04:57.387Z,11.7
2016-04-15T01:05:07.390Z,11.8
2016-04-15T01:05:17.374Z,11.7
2016-04-15T01:05:27.358Z,11.8
2016-04-15T01:05:37.343Z,11.8
2016-04-15T01:05:47.343Z,11.8
2016-04-15T01:05:57.327Z,11.7
2016-04-15T01:06:07.314Z,11.7
2016-04-15T01:06:17.298Z,11.7
2016-04-15T01:06:27.282Z,11.7
2016-04-15T01:06:37.282Z,11.7
2016-04-15T01:06:47.267Z,11.8
2016-04-15T01:06:57.251Z,11.7
2016-04-15T01:07:07.238Z,11.8
2016-04-15T01:07:17.238Z,11.8
2016-04-15T01:07:27.223Z,11.7
2016-04-15T01:07:37.207Z,11.8
2016-04-15T01:07:47.192Z,11.7
2016-04-15T01:07:57.176Z,11.7
2016-04-15T01:08:07.163Z,11.7
2016-04-15T01:08:17.148Z,11.8
2016-04-15T01:08:27.148Z,11.8
2016-04-15T01:08:37.132Z,11.9
2016-04-15T01:08:47.116Z,11.8
2016-04-15T01:08:57.116Z,11.8
2016-04-15T01:09:07.104Z,11.8
2016-04-15T01:09:17.088Z,11.8
2016-04-15T01:09:27.073Z,11.9
2016-04-15T01:09:37.073Z,11.9
2016-04-15T01:09:47.057Z,11.9
2016-04-15T01:09:57.041Z,11.9
2016-04-15T01:10:07.028Z,11.9
2016-04-15T01:10:17.028Z,11.9
2016-04-15T01:10:27.012Z,11.9
2016-04-15T01:10:36.996Z,11.9
2016-04-15T01:10:46.981Z,11.9
2016-04-15T01:10:56.965Z,11.8
2016-04-15T01:11:06.953Z,11.8
2016-04-15T01:11:16.953Z,11.8
2016-04-15T01:11:26.937Z,11.9
2016-04-15T01:11:36.937Z,11.9
2016-04-15T01:11:46.906Z,11.9
2016-04-15T01:11:56.906Z,11.9
2016-04-15T01:12:06.892Z,11.9
2016-04-15T01:12:16.892Z,11.9
2016-04-15T01:12:26.861Z,11.8
2016-04-15T01:12:36.845Z,11.8
2016-04-15T01:12:46.830Z,11.9
2016-04-15T01:12:56.830Z,11.9
2016-04-15T01:13:06.817Z,11.8
2016-04-15T01:13:16.801Z,11.9
2016-04-15T01:13:26.801Z,11.9
2016-04-15T01:13:36.786Z,11.8
2016-04-15T01:13:46.770Z,11.8
2016-04-15T01:13:56.754Z,11.9
2016-04-15T01:14:06.757Z,11.8
2016-04-15T01:14:16.742Z,11.9
2016-04-15T01:14:26.726Z,11.9
2016-04-15T01:14:36.679Z,11.8
2016-04-15T01:14:46.695Z,11.9
2016-04-15T01:14:56.679Z,11.9
2016-04-15T01:15:06.681Z,11.8
2016-04-15T01:15:16.666Z,11.9
2016-04-15T01:15:26.650Z,11.8
2016-04-15T01:15:36.634Z,11.9
2016-04-15T01:15:46.634Z,11.9
2016-04-15T01:15:56.619Z,11.9
2016-04-15T01:16:06.607Z,11.9
2016-04-15T01:16:16.592Z,11.9
2016-04-15T01:16:26.592Z,11.9
2016-04-15T01:16:36.576Z,11.8
2016-04-15T01:16:46.576Z,11.9
2016-04-15T01:16:56.545Z,11.9
2016-04-15T01:17:06.547Z,11.9
2016-04-15T01:17:16.531Z,11.9
2016-04-15T01:17:26.515Z,11.9
2016-04-15T01:17:36.500Z,11.9
2016-04-15T01:17:46.484Z,11.9
2016-04-15T01:17:56.469Z,11.9
2016-04-15T01:18:06.472Z,11.9
2016-04-15T01:18:16.456Z,11.9
2016-04-15T01:18:26.440Z,11.9
2016-04-15T01:18:36.425Z,11.9
2016-04-15T01:18:46.425Z,11.9
2016-04-15T01:18:56.409Z,11.9
2016-04-15T01:19:06.396Z,11.9
2016-04-15T01:19:16.396Z,11.9
2016-04-15T01:19:26.381Z,11.9
2016-04-15T01:19:36.365Z,11.8
2016-04-15T01:19:46.350Z,11.9
2016-04-15T01:19:56.334Z,11.9
2016-04-15T01:20:06.336Z,11.8
2016-04-15T01:20:16.320Z,11.9
2016-04-15T01:20:26.320Z,11.8
2016-04-15T01:20:36.289Z,11.8
2016-04-15T01:20:46.273Z,11.8
2016-04-15T01:20:56.258Z,11.8
2016-04-15T01:21:06.261Z,11.8
2016-04-15T01:21:16.245Z,11.8
2016-04-15T01:21:26.230Z,11.8
2016-04-15T01:21:36.214Z,11.7
2016-04-15T01:21:46.214Z,11.8
2016-04-15T01:21:56.198Z,11.8
2016-04-15T01:22:06.185Z,11.7
2016-04-15T01:22:16.169Z,11.7
2016-04-15T01:22:26.153Z,11.7
2016-04-15T01:22:36.153Z,11.8
2016-04-15T01:22:46.138Z,11.8
2016-04-15T01:22:56.122Z,11.8
2016-04-15T01:23:06.110Z,11.8
2016-04-15T01:23:16.094Z,11.7
2016-04-15T01:23:26.094Z,11.7
2016-04-15T01:23:36.078Z,11.8
2016-04-15T01:23:46.063Z,11.7
2016-04-15T01:23:56.063Z,11.7
2016-04-15T01:24:06.050Z,11.8
2016-04-15T01:24:16.034Z,11.7
2016-04-15T01:24:26.019Z,11.9
2016-04-15T01:24:36.019Z,11.9
2016-04-15T01:24:46.003Z,11.9
2016-04-15T01:24:55.988Z,11.9
2016-04-15T01:25:05.990Z,11.8
2016-04-15T01:25:15.958Z,11.9
2016-04-15T01:25:25.943Z,11.9
2016-04-15T01:25:35.943Z,11.9
2016-04-15T01:25:45.927Z,11.9
2016-04-15T01:25:55.911Z,11.8
2016-04-15T01:26:05.900Z,11.8
2016-04-15T01:26:15.900Z,11.8
2016-04-15T01:26:25.884Z,11.9
2016-04-15T01:26:35.869Z,11.8
2016-04-15T01:26:45.853Z,11.8
2016-04-15T01:26:55.853Z,11.8
2016-04-15T01:27:05.839Z,11.8
2016-04-15T01:27:15.824Z,11.9
2016-04-15T01:27:25.824Z,11.9
2016-04-15T01:27:35.792Z,11.9
2016-04-15T01:27:45.792Z,11.8
2016-04-15T01:27:55.777Z,11.8
2016-04-15T01:28:05.764Z,11.9
2016-04-15T01:28:15.764Z,11.8
2016-04-15T01:28:25.749Z,11.9
2016-04-15T01:28:35.733Z,11.8
2016-04-15T01:28:45.717Z,11.8
2016-04-15T01:28:55.702Z,11.9
2016-04-15T01:29:05.689Z,11.8
2016-04-15T01:29:15.533Z,11.9
2016-04-15T01:29:25.673Z,11.9
2016-04-15T01:29:35.595Z,11.9
2016-04-15T01:29:45.705Z,11.8
2016-04-15T01:29:55.627Z,11.9
2016-04-15T01:30:05.629Z,11.8
2016-04-15T01:30:15.613Z,11.9
2016-04-15T01:30:25.597Z,11.9
2016-04-15T01:30:35.597Z,11.9
2016-04-15T01:30:45.566Z,11.9
2016-04-15T01:30:55.566Z,11.9
2016-04-15T01:31:05.553Z,11.8
2016-04-15T01:31:15.538Z,11.9
2016-04-15T01:31:25.538Z,11.9
2016-04-15T01:31:35.507Z,11.9
2016-04-15T01:31:45.507Z,11.8
2016-04-15T01:31:55.491Z,11.9
2016-04-15T01:32:05.477Z,11.9
2016-04-15T01:32:15.462Z,11.9
2016-04-15T01:32:25.462Z,11.8
2016-04-15T01:32:35.446Z,11.9
2016-04-15T01:32:45.430Z,12
2016-04-15T01:32:55.415Z,11.9
2016-04-15T01:33:05.418Z,11.8
2016-04-15T01:33:15.402Z,11.9
2016-04-15T01:33:25.387Z,11.9
2016-04-15T01:33:35.371Z,11.9
2016-04-15T01:33:45.355Z,11.8
2016-04-15T01:33:55.355Z,11.8
2016-04-15T01:34:05.343Z,11.8
2016-04-15T01:34:15.327Z,11.8
2016-04-15T01:34:25.311Z,11.8
2016-04-15T01:34:35.296Z,11.9
2016-04-15T01:34:45.296Z,11.9
2016-04-15T01:34:55.280Z,11.8
2016-04-15T01:35:05.283Z,11.8
2016-04-15T01:35:15.268Z,11.8
2016-04-15T01:35:25.252Z,11.8
2016-04-15T01:35:35.236Z,11.9
2016-04-15T01:35:45.236Z,11.9
2016-04-15T01:35:55.205Z,11.7
2016-04-15T01:36:05.207Z,11.9
2016-04-15T01:36:15.191Z,11.9
2016-04-15T01:36:25.176Z,11.8
2016-04-15T01:36:35.176Z,11.9
2016-04-15T01:36:45.160Z,11.9
2016-04-15T01:36:55.129Z,11.9
2016-04-15T01:37:05.132Z,11.9
2016-04-15T01:37:15.116Z,11.9
2016-04-15T01:37:25.116Z,11.9
2016-04-15T01:37:35.101Z,11.9
2016-04-15T01:37:45.085Z,11.9
2016-04-15T01:37:55.069Z,11.9
2016-04-15T01:38:05.056Z,11.8
2016-04-15T01:38:15.040Z,11.8
2016-04-15T01:38:25.040Z,11.8
2016-04-15T01:38:35.025Z,11.8
2016-04-15T01:38:45.009Z,11.8
2016-04-15T01:38:55.009Z,11.9
2016-04-15T01:39:04.981Z,11.9
2016-04-15T01:39:14.981Z,11.9
2016-04-15T01:39:24.965Z,11.8
2016-04-15T01:39:34.949Z,11.9
2016-04-15T01:39:44.934Z,11.9
2016-04-15T01:39:54.934Z,11.8
2016-04-15T01:40:04.921Z,11.9
2016-04-15T01:40:14.906Z,11.8
2016-04-15T01:40:24.890Z,11.9
2016-04-15T01:40:34.890Z,11.8
2016-04-15T01:40:44.874Z,11.8
2016-04-15T01:40:54.859Z,11.8
2016-04-15T01:41:04.845Z,11.8
2016-04-15T01:41:14.829Z,11.8
2016-04-15T01:41:24.829Z,11.7
2016-04-15T01:41:34.814Z,11.8
2016-04-15T01:41:44.798Z,11.8
2016-04-15T01:41:54.798Z,11.7
2016-04-15T01:42:04.771Z,11.7
2016-04-15T01:42:14.771Z,11.8
2016-04-15T01:42:24.755Z,11.7
2016-04-15T01:42:34.740Z,11.7
2016-04-15T01:42:44.724Z,11.7
2016-04-15T01:42:54.724Z,11.8
2016-04-15T01:43:04.710Z,11.8
2016-04-15T01:43:14.695Z,11.8
2016-04-15T01:43:24.679Z,11.7
2016-04-15T01:43:34.664Z,11.7
2016-04-15T01:43:44.664Z,11.7
2016-04-15T01:43:54.648Z,11.7
2016-04-15T01:44:04.635Z,11.7
2016-04-15T01:44:14.620Z,11.7
2016-04-15T01:44:24.620Z,11.8
2016-04-15T01:44:34.604Z,11.6
2016-04-15T01:44:44.604Z,11.7
2016-04-15T01:44:54.760Z,11.7
2016-04-15T01:45:04.576Z,11.8
2016-04-15T01:45:14.560Z,11.7
2016-04-15T01:45:24.545Z,11.8
2016-04-15T01:45:34.529Z,11.7
2016-04-15T01:45:44.513Z,11.7
2016-04-15T01:45:54.513Z,11.6
2016-04-15T01:46:04.500Z,11.8
2016-04-15T01:46:14.484Z,11.6
2016-04-15T01:46:24.468Z,11.7
2016-04-15T01:46:34.453Z,11.6
2016-04-15T01:46:44.453Z,11.7
2016-04-15T01:46:54.437Z,11.6
2016-04-15T01:47:04.425Z,11.6
2016-04-15T01:47:14.409Z,11.7
2016-04-15T01:47:24.409Z,11.8
2016-04-15T01:47:34.393Z,11.7
2016-04-15T01:47:44.378Z,11.7
2016-04-15T01:47:54.362Z,11.7
2016-04-15T01:48:04.348Z,11.6
2016-04-15T01:48:14.348Z,11.7
2016-04-15T01:48:24.333Z,11.7
2016-04-15T01:48:34.317Z,11.7
2016-04-15T01:48:44.302Z,11.6
2016-04-15T01:48:54.286Z,11.7
2016-04-15T01:49:04.273Z,11.6
2016-04-15T01:49:14.273Z,11.7
2016-04-15T01:49:24.258Z,11.7
2016-04-15T01:49:34.242Z,11.7
2016-04-15T01:49:44.242Z,11.6
2016-04-15T01:49:54.226Z,11.7
2016-04-15T01:50:04.214Z,11.6
2016-04-15T01:50:14.198Z,11.7
2016-04-15T01:50:24.198Z,11.7
2016-04-15T01:50:34.183Z,11.6
2016-04-15T01:50:44.167Z,11.7
2016-04-15T01:50:54.151Z,11.7
2016-04-15T01:51:04.138Z,11.7
2016-04-15T01:51:14.138Z,11.7
2016-04-15T01:51:24.122Z,11.6
2016-04-15T01:51:34.106Z,11.8
2016-04-15T01:51:44.091Z,11.6
2016-04-15T01:51:54.091Z,11.7
2016-04-15T01:52:04.078Z,11.7
2016-04-15T01:52:14.063Z,11.7
2016-04-15T01:52:24.047Z,11.6
2016-04-15T01:52:34.031Z,11.7
2016-04-15T01:52:44.031Z,11.6
2016-04-15T01:52:54.016Z,11.6
2016-04-15T01:53:04.002Z,11.7
2016-04-15T01:53:13.986Z,11.7
2016-04-15T01:53:23.971Z,11.6
2016-04-15T01:53:33.971Z,11.7
2016-04-15T01:53:43.955Z,11.6
2016-04-15T01:53:53.940Z,11.7
2016-04-15T01:54:03.927Z,11.6
2016-04-15T01:54:13.927Z,11.7
2016-04-15T01:54:23.911Z,11.8
2016-04-15T01:54:33.896Z,11.7
2016-04-15T01:54:43.880Z,11.7
2016-04-15T01:54:53.864Z,11.7
2016-04-15T01:55:03.867Z,11.6
2016-04-15T01:55:13.852Z,11.7
2016-04-15T01:55:23.836Z,11.7
2016-04-15T01:55:33.836Z,11.6
2016-04-15T01:55:43.821Z,11.6
2016-04-15T01:55:53.805Z,11.6
2016-04-15T01:56:03.791Z,11.6
2016-04-15T01:56:13.776Z,11.6
2016-04-15T01:56:23.760Z,11.7
2016-04-15T01:56:33.760Z,11.7
2016-04-15T01:56:43.744Z,11.6
2016-04-15T01:56:53.729Z,11.6
2016-04-15T01:57:03.717Z,11.6
2016-04-15T01:57:13.702Z,11.7
2016-04-15T01:57:23.702Z,11.7
2016-04-15T01:57:33.686Z,11.6
2016-04-15T01:57:43.670Z,11.6
2016-04-15T01:57:53.655Z,11.7
2016-04-15T01:58:03.657Z,11.6
2016-04-15T01:58:13.641Z,11.6
2016-04-15T01:58:23.625Z,11.7
2016-04-15T01:58:33.610Z,11.6
2016-04-15T01:58:43.594Z,11.7
2016-04-15T01:58:53.594Z,11.6
2016-04-15T01:59:03.582Z,11.7
2016-04-15T01:59:13.566Z,11.6
2016-04-15T01:59:23.550Z,11.8
2016-04-15T01:59:33.535Z,11.7
2016-04-15T01:59:43.535Z,11.6
2016-04-15T01:59:53.535Z,11.7
2016-04-15T02:00:03.506Z,11.7
2016-04-15T02:00:13.491Z,11.7
2016-04-15T02:00:23.475Z,11.7
2016-04-15T02:00:33.475Z,11.8
2016-04-15T02:00:43.460Z,11.7
2016-04-15T02:00:52.694Z,11.8
2016-04-15T02:01:03.291Z,11.7
2016-04-15T02:01:13.431Z,11.7
2016-04-15T02:01:23.416Z,11.7
2016-04-15T02:01:33.400Z,11.8
2016-04-15T02:01:43.384Z,11.8
2016-04-15T02:01:53.384Z,11.7
2016-04-15T02:02:03.371Z,11.7
2016-04-15T02:02:13.355Z,11.8
2016-04-15T02:02:23.340Z,11.7
2016-04-15T02:02:33.324Z,11.6
2016-04-15T02:02:43.324Z,11.7
2016-04-15T02:02:53.308Z,11.7
2016-04-15T02:03:03.296Z,11.7
2016-04-15T02:03:13.296Z,11.7
2016-04-15T02:03:23.280Z,11.6
2016-04-15T02:03:33.264Z,11.7
2016-04-15T02:03:43.249Z,11.7
2016-04-15T02:03:53.233Z,11.6
2016-04-15T02:04:03.235Z,11.6
2016-04-15T02:04:13.220Z,11.7
2016-04-15T02:04:23.204Z,11.6
2016-04-15T02:04:33.188Z,11.6
2016-04-15T02:04:43.173Z,11.7
2016-04-15T02:04:53.173Z,11.7
2016-04-15T02:05:03.160Z,11.6
2016-04-15T02:05:13.144Z,11.6
2016-04-15T02:05:23.144Z,11.7
2016-04-15T02:05:33.129Z,11.7
2016-04-15T02:05:43.113Z,11.6
2016-04-15T02:05:53.098Z,11.6
2016-04-15T02:06:03.085Z,11.6
2016-04-15T02:06:13.069Z,11.7
2016-04-15T02:06:23.069Z,11.7
2016-04-15T02:06:33.054Z,11.8
2016-04-15T02:06:43.038Z,11.8
2016-04-15T02:06:53.038Z,11.7
2016-04-15T02:07:03.025Z,11.7
2016-04-15T02:07:13.010Z,11.7
2016-04-15T02:07:22.994Z,11.7
2016-04-15T02:07:32.979Z,11.7
2016-04-15T02:07:42.963Z,11.7
2016-04-15T02:07:52.963Z,11.7
2016-04-15T02:08:02.950Z,11.7
2016-04-15T02:08:12.935Z,11.8
2016-04-15T02:08:22.919Z,11.8
2016-04-15T02:08:32.903Z,11.8
2016-04-15T02:08:42.903Z,11.6
2016-04-15T02:08:52.888Z,11.7
2016-04-15T02:09:02.874Z,11.6
2016-04-15T02:09:12.859Z,11.6
2016-04-15T02:09:22.859Z,11.6
2016-04-15T02:09:32.843Z,11.7
2016-04-15T02:09:42.827Z,11.7
2016-04-15T02:09:52.812Z,11.6
2016-04-15T02:10:02.815Z,11.7
2016-04-15T02:10:12.783Z,11.7
2016-04-15T02:10:22.783Z,11.7
2016-04-15T02:10:32.768Z,11.7
2016-04-15T02:10:42.752Z,11.7
2016-04-15T02:10:52.737Z,11.7
2016-04-15T02:11:02.740Z,11.6
2016-04-15T02:11:12.724Z,11.7
2016-04-15T02:11:22.708Z,11.7
2016-04-15T02:11:32.693Z,11.7
2016-04-15T02:11:42.693Z,11.6
2016-04-15T02:11:52.677Z,11.7
2016-04-15T02:12:02.663Z,11.6
2016-04-15T02:12:12.663Z,11.6
2016-04-15T02:12:22.648Z,11.7
2016-04-15T02:12:32.632Z,11.7
2016-04-15T02:12:42.617Z,11.7
2016-04-15T02:12:52.601Z,11.6
2016-04-15T02:13:02.588Z,11.7